KFAT

Fresno Yosemite International Airport

Fresno, California, USA
METAR KFAT 221653Z 15006KT 10SM FEW075 FEW150 23/11 A2986 RMK AO2 SLP108 HZ DSNT ALQDS T02280106
Observed Flight Rules
May-22 @ 16:53 UTC (an hour ago) Visual Flight Rules
Wind Visibility Clouds
150° at 6 knots 10 miles
  • Few at 7,500' AGL
  • Few at 15,000' AGL
Temperatures Readings
Current 23°C / 73°F
Dewpoint 11°C / 52°F
Humidity 47%
Altimeter 29.86" Hg
Pressure 1010.8 hPa
Elevation 104
METAR KFAT 221653Z 15006KT 10SM FEW075 FEW150 23/11 A2986 RMK AO2 SLP108 HZ DSNT ALQDS T02280106
Observed Flight Rules
May-22 @ 16:53 UTC
(an hour ago)
VFR
Wind Visibility
150° at 6 knots 10 miles
Clouds
  • Few at 7,500' AGL
  • Few at 15,000' AGL
Temperature Dewpoint
23°C / 73°F 11°C / 52°F
Humidity Altimeter Pressure
47% 29.86" Hg 1010.8 hPa